Time;durP1;ratioP1;P1;durP2;ratioP2;P2;SDS_P1;SDS_P2;PMS_P1;PMS_P2;Temp;Humidity;BMP_temperature;BMP_pressure;BME280_temperature;BME280_humidity;BME280_pressure;Samples;Min_cycle;Max_cycle;Signal;HPM_P1;HPM_P2
2023/08/19 00:00:13;;;;;;;5.72;5.22;;;;;;;24.04;63.59;100573.13;5034113;28;20657;-64
2023/08/19 00:02:43;;;;;;;5.20;4.80;;;;;;;24.07;63.72;100588.72;5033089;28;20573;-66
2023/08/19 00:05:11;;;;;;;6.28;5.25;;;;;;;24.05;63.51;100584.50;5033672;28;20309;-64
2023/08/19 00:07:39;;;;;;;6.65;5.18;;;;;;;24.02;63.52;100579.41;5033810;28;20254;-64
2023/08/19 00:10:08;;;;;;;5.72;5.32;;;;;;;24.01;63.10;100580.38;5033880;28;20203;-66
2023/08/19 00:12:36;;;;;;;8.07;4.88;;;;;;;23.99;63.26;100584.84;5033921;28;20673;-64
2023/08/19 00:15:05;;;;;;;5.32;4.88;;;;;;;23.98;63.05;100584.00;5033440;28;20214;-66
2023/08/19 00:17:33;;;;;;;5.93;5.05;;;;;;;23.95;63.49;100583.34;5033460;28;20210;-64
2023/08/19 00:20:06;;;;;;;5.53;5.07;;;;;;;23.92;63.19;100576.47;5033880;28;20661;-63
2023/08/19 00:22:35;;;;;;;5.15;4.75;;;;;;;23.92;63.54;100583.53;5019648;28;20210;-63
2023/08/19 00:25:04;;;;;;;5.35;4.85;;;;;;;23.89;63.32;100579.28;5024958;28;20541;-64
2023/08/19 00:27:32;;;;;;;4.85;4.45;;;;;;;23.86;63.57;100585.59;5033127;28;20229;-65
2023/08/19 00:30:01;;;;;;;6.32;4.47;;;;;;;23.87;63.61;100586.44;5025208;28;20702;-63
2023/08/19 00:32:29;;;;;;;5.63;5.07;;;;;;;23.86;63.67;100582.97;5027788;28;20210;-63
2023/08/19 00:34:57;;;;;;;4.53;4.20;;;;;;;23.91;63.46;100593.22;5033614;28;20759;-63
2023/08/19 00:37:26;;;;;;;4.40;4.10;;;;;;;23.93;63.07;100591.31;5033570;28;20253;-64
2023/08/19 00:39:54;;;;;;;5.97;4.70;;;;;;;23.94;62.86;100597.47;5032192;28;20207;-64
2023/08/19 00:42:22;;;;;;;4.85;4.45;;;;;;;23.93;62.81;100580.78;5033551;28;20571;-63
2023/08/19 00:44:50;;;;;;;6.57;4.03;;;;;;;23.92;63.21;100576.47;5032790;28;20210;-64
2023/08/19 00:47:17;;;;;;;5.22;4.50;;;;;;;23.91;63.35;100577.41;5033483;28;20234;-63
2023/08/19 00:49:45;;;;;;;5.00;4.55;;;;;;;23.91;63.19;100572.16;5032215;28;20264;-61
2023/08/19 00:52:13;;;;;;;5.88;4.90;;;;;;;23.91;63.62;100572.16;5033091;28;20202;-63
2023/08/19 00:54:43;;;;;;;5.38;4.82;;;;;;;23.90;63.76;100575.72;5032804;28;20206;-65
2023/08/19 00:57:12;;;;;;;5.85;5.22;;;;;;;23.89;64.34;100579.28;5032703;28;20256;-64
2023/08/19 00:59:40;;;;;;;6.22;5.10;;;;;;;23.89;64.72;100576.66;5032678;28;20207;-64
2023/08/19 01:02:08;;;;;;;5.05;4.55;;;;;;;23.91;64.43;100572.16;5032843;28;20261;-65
2023/08/19 01:04:36;;;;;;;4.53;4.20;;;;;;;23.89;64.80;100575.81;5033258;28;20618;-64
2023/08/19 01:07:11;;;;;;;5.30;4.53;;;;;;;23.83;64.46;100575.22;5027895;28;20222;-64
2023/08/19 01:09:48;;;;;;;5.00;4.60;;;;;;;23.79;64.84;100570.25;5013321;28;20542;-63
2023/08/19 01:12:24;;;;;;;6.50;5.10;;;;;;;23.70;64.75;100563.72;5029084;28;20701;-64
2023/08/19 01:15:04;;;;;;;6.63;5.18;;;;;;;23.61;65.31;100572.97;5032847;28;20572;-63
2023/08/19 01:17:35;;;;;;;7.13;5.10;;;;;;;23.55;65.55;100570.66;5032787;28;20208;-64
2023/08/19 01:20:05;;;;;;;5.28;4.78;;;;;;;23.57;66.33;100567.97;5031607;28;20207;-62
2023/08/19 01:22:39;;;;;;;5.82;5.15;;;;;;;23.60;66.39;100568.66;5032325;28;20662;-64
2023/08/19 01:25:11;;;;;;;8.45;4.88;;;;;;;23.65;65.96;100575.44;5026730;28;20264;-62
2023/08/19 01:27:38;;;;;;;6.07;4.90;;;;;;;23.66;66.43;100575.31;5029027;28;20678;-64
2023/08/19 01:30:09;;;;;;;5.10;4.70;;;;;;;23.69;66.28;100582.22;5032192;28;20242;-63
2023/08/19 01:32:38;;;;;;;5.88;5.25;;;;;;;23.70;66.04;100581.28;5032108;28;20219;-65
2023/08/19 01:35:07;;;;;;;5.95;5.45;;;;;;;23.72;66.16;100579.44;5032261;28;20209;-66
2023/08/19 01:37:40;;;;;;;5.90;5.28;;;;;;;23.69;65.89;100577.81;5031844;28;20206;-63
2023/08/19 01:40:13;;;;;;;6.07;5.07;;;;;;;23.65;65.70;100585.94;5032279;28;20203;-65
2023/08/19 01:42:42;;;;;;;7.38;5.30;;;;;;;23.54;65.79;100590.03;5017985;28;20624;-65
2023/08/19 01:45:12;;;;;;;10.23;5.60;;;;;;;23.54;66.08;100592.66;5012512;28;20533;-63
2023/08/19 01:47:42;;;;;;;6.10;5.65;;;;;;;23.51;65.90;100586.72;5025517;28;20720;-64
2023/08/19 01:50:11;;;;;;;6.47;5.95;;;;;;;23.46;66.46;100592.25;5024844;28;20291;-65
2023/08/19 01:52:39;;;;;;;7.93;6.18;;;;;;;23.44;66.57;100588.84;5012316;28;20697;-63
2023/08/19 01:55:08;;;;;;;6.18;5.45;;;;;;;23.41;66.86;100588.16;5030425;28;20206;-64
2023/08/19 01:57:37;;;;;;;6.57;5.95;;;;;;;23.41;67.06;100585.53;5031688;28;20198;-62
2023/08/19 02:00:07;;;;;;;6.35;5.75;;;;;;;23.37;67.25;100580.44;5027208;28;20570;-64
2023/08/19 02:02:35;;;;;;;6.15;5.55;;;;;;;23.38;67.62;100591.81;5031545;28;20261;-62
2023/08/19 02:05:03;;;;;;;6.55;5.45;;;;;;;23.38;67.70;100590.06;5031803;28;20703;-63
2023/08/19 02:07:31;;;;;;;5.82;4.88;;;;;;;23.42;68.04;100590.75;5031708;28;20621;-63
2023/08/19 02:09:59;;;;;;;6.20;5.30;;;;;;;23.45;67.82;100581.81;5016958;28;20229;-63
2023/08/19 02:12:30;;;;;;;6.90;6.20;;;;;;;23.47;67.80;100577.31;5022073;28;20207;-65
2023/08/19 02:14:59;;;;;;;6.90;6.30;;;;;;;23.45;67.71;100574.75;5011706;28;20235;-65
2023/08/19 02:17:27;;;;;;;6.97;6.30;;;;;;;23.41;67.60;100573.25;5024809;28;20204;-63
2023/08/19 02:19:55;;;;;;;6.70;6.10;;;;;;;23.32;67.76;100569.34;5024610;28;20731;-64
2023/08/19 02:22:23;;;;;;;7.07;6.38;;;;;;;23.27;68.33;100570.53;5031007;28;20207;-63
2023/08/19 02:24:51;;;;;;;7.35;6.65;;;;;;;23.23;68.46;100574.28;5031232;28;20218;-64
2023/08/19 02:27:19;;;;;;;7.97;7.13;;;;;;;23.24;68.83;100571.56;5031032;28;20214;-64
2023/08/19 02:29:47;;;;;;;6.65;6.03;;;;;;;23.26;68.64;100567.06;5024202;28;20245;-65
2023/08/19 02:32:17;;;;;;;6.70;6.07;;;;;;;23.29;68.84;100566.03;5023772;28;20206;-63
2023/08/19 02:34:45;;;;;;;7.70;6.90;;;;;;;23.31;68.85;100569.44;5031057;28;20284;-64
2023/08/19 02:37:14;;;;;;;6.47;5.82;;;;;;;23.32;68.82;100573.78;5031063;28;20207;-63
2023/08/19 02:39:42;;;;;;;6.75;6.05;;;;;;;23.34;68.83;100569.25;5031091;28;20302;-64
2023/08/19 02:42:11;;;;;;;7.03;6.43;;;;;;;23.33;68.82;100571.03;5029042;28;20211;-62
2023/08/19 02:44:39;;;;;;;7.30;6.60;;;;;;;23.34;68.73;100571.88;5030947;28;20207;-62
2023/08/19 02:47:07;;;;;;;10.32;7.18;;;;;;;23.32;68.84;100579.03;5031120;28;20317;-64
2023/08/19 02:49:37;;;;;;;7.60;6.75;;;;;;;23.30;68.82;100580.88;5031001;28;20217;-65
2023/08/19 02:52:05;;;;;;;7.95;6.63;;;;;;;23.27;68.89;100579.28;5031282;28;20610;-63
2023/08/19 02:54:33;;;;;;;7.95;6.97;;;;;;;23.26;68.90;100563.59;5030607;28;20264;-63
2023/08/19 02:57:02;;;;;;;7.28;6.13;;;;;;;23.26;68.81;100563.59;5031216;28;20203;-67
2023/08/19 02:59:30;;;;;;;7.85;7.05;;;;;;;23.25;68.83;100557.47;5030690;28;20667;-63
2023/08/19 03:01:58;;;;;;;7.50;6.82;;;;;;;23.21;68.66;100555.13;5030936;28;20693;-66
2023/08/19 03:04:26;;;;;;;8.07;7.28;;;;;;;23.16;68.39;100555.38;5023410;28;20217;-64
2023/08/19 03:06:55;;;;;;;8.13;7.38;;;;;;;23.08;68.39;100563.66;5018641;28;20211;-63
2023/08/19 03:09:23;;;;;;;8.13;7.32;;;;;;;22.97;68.66;100563.41;5035086;28;20590;-63
2023/08/19 03:11:51;;;;;;;8.43;7.57;;;;;;;22.88;69.02;100566.53;5033897;28;20206;-63
2023/08/19 03:14:19;;;;;;;8.50;7.60;;;;;;;22.82;69.21;100567.69;5034752;28;20234;-66
2023/08/19 03:16:49;;;;;;;8.45;7.65;;;;;;;22.78;69.73;100573.19;5033491;28;20209;-64
2023/08/19 03:19:17;;;;;;;8.88;8.18;;;;;;;22.73;70.02;100576.09;5022335;28;20209;-64
2023/08/19 03:21:44;;;;;;;9.18;8.38;;;;;;;22.70;70.29;100575.41;5020880;28;20215;-65
2023/08/19 03:24:14;;;;;;;9.75;8.85;;;;;;;22.65;70.12;100579.13;5033394;28;20234;-65
2023/08/19 03:26:42;;;;;;;14.43;9.68;;;;;;;22.59;70.39;100584.69;5034478;28;20268;-62
2023/08/19 03:29:10;;;;;;;9.13;8.43;;;;;;;22.56;70.36;100587.47;5034347;28;20238;-64
2023/08/19 03:31:37;;;;;;;9.23;8.35;;;;;;;22.51;70.31;100586.88;5034708;28;20229;-65
2023/08/19 03:34:06;;;;;;;9.90;8.80;;;;;;;22.50;70.50;100585.19;5034358;28;20237;-63
2023/08/19 03:36:33;;;;;;;9.40;8.60;;;;;;;22.52;70.58;100593.81;5034398;28;20252;-63
2023/08/19 03:39:01;;;;;;;10.40;9.35;;;;;;;22.56;70.34;100589.25;5034380;28;20290;-64
2023/08/19 03:41:31;;;;;;;8.80;7.93;;;;;;;22.56;69.80;100590.09;5029205;28;20215;-62
2023/08/19 03:43:58;;;;;;;9.60;8.00;;;;;;;22.53;69.84;100582.38;5025793;28;20565;-63
2023/08/19 03:46:26;;;;;;;9.70;8.23;;;;;;;22.50;69.96;100587.81;5033916;28;20297;-61
2023/08/19 03:48:55;;;;;;;10.10;8.23;;;;;;;22.49;69.94;100580.84;5034035;28;20225;-63
2023/08/19 03:51:22;;;;;;;8.68;7.65;;;;;;;22.49;70.08;100583.47;5018507;28;20619;-63
2023/08/19 03:53:50;;;;;;;8.55;7.78;;;;;;;22.52;69.77;100588.56;5022363;28;20242;-64
2023/08/19 03:56:18;;;;;;;9.40;8.05;;;;;;;22.56;69.69;100586.63;5034225;28;20657;-64
2023/08/19 03:58:48;;;;;;;8.52;7.70;;;;;;;22.57;69.34;100591.81;5034258;28;20750;-66
2023/08/19 04:01:16;;;;;;;10.30;8.00;;;;;;;22.52;69.39;100596.44;5033815;28;20207;-66
2023/08/19 04:03:44;;;;;;;9.18;8.38;;;;;;;22.48;69.34;100589.66;5034111;28;20234;-64
2023/08/19 04:06:12;;;;;;;10.13;7.72;;;;;;;22.48;69.43;100600.16;5033738;28;20207;-64
2023/08/19 04:08:40;;;;;;;9.27;7.45;;;;;;;22.50;69.55;100598.31;5019944;28;20218;-63
2023/08/19 04:11:08;;;;;;;8.63;7.75;;;;;;;22.52;69.36;100595.59;5032986;28;20237;-64
2023/08/19 04:13:36;;;;;;;11.95;8.15;;;;;;;22.49;69.70;100604.47;5033690;28;20218;-63
2023/08/19 04:16:07;;;;;;;9.18;8.25;;;;;;;22.49;70.11;100606.25;5033920;28;20207;-63
2023/08/19 04:18:36;;;;;;;9.25;8.27;;;;;;;22.53;69.89;100606.00;5031623;28;20203;-64
2023/08/19 04:21:05;;;;;;;8.85;8.05;;;;;;;22.58;69.75;100601.38;5022282;28;20662;-64
2023/08/19 04:23:33;;;;;;;8.27;7.47;;;;;;;22.65;69.32;100608.03;5033325;28;20261;-63
2023/08/19 04:26:01;;;;;;;8.70;7.90;;;;;;;22.69;68.93;100600.81;5032751;28;20289;-67
2023/08/19 04:28:29;;;;;;;8.35;7.65;;;;;;;22.71;68.89;100603.34;5033375;28;20690;-64
2023/08/19 04:31:02;;;;;;;9.05;8.20;;;;;;;22.69;69.08;100607.88;5019286;28;20211;-64
2023/08/19 04:33:32;;;;;;;8.85;7.95;;;;;;;22.66;69.33;100601.81;5033421;28;20195;-65
2023/08/19 04:36:02;;;;;;;9.05;8.18;;;;;;;22.63;69.36;100606.38;5019747;28;20211;-64
2023/08/19 04:38:30;;;;;;;11.80;9.00;;;;;;;22.62;69.20;100608.19;5033168;28;20206;-63
2023/08/19 04:41:00;;;;;;;10.18;8.35;;;;;;;22.59;69.67;100615.38;5031179;28;20207;-64
2023/08/19 04:43:28;;;;;;;9.43;8.48;;;;;;;22.53;69.82;100615.69;5033477;28;20759;-63
2023/08/19 04:45:56;;;;;;;10.00;8.80;;;;;;;22.49;70.13;100620.25;5033307;28;20658;-64
2023/08/19 04:48:24;;;;;;;9.60;8.45;;;;;;;22.45;70.15;100615.22;5033118;28;20582;-65
2023/08/19 04:50:53;;;;;;;9.48;8.57;;;;;;;22.43;70.40;100625.81;5033208;28;20727;-63
2023/08/19 04:53:21;;;;;;;9.23;8.32;;;;;;;22.44;70.43;100632.78;5032848;28;20214;-62
2023/08/19 04:55:49;;;;;;;9.27;8.38;;;;;;;22.42;70.55;100630.25;5033061;28;20213;-61
2023/08/19 04:58:17;;;;;;;9.73;8.07;;;;;;;22.47;70.82;100616.00;5032913;28;20575;-65
2023/08/19 05:00:45;;;;;;;9.73;8.07;;;;;;;22.52;70.47;100625.34;5024039;28;20658;-63
2023/08/19 05:03:13;;;;;;;8.07;7.38;;;;;;;22.55;70.28;100634.84;5027055;28;20662;-62
2023/08/19 05:05:41;;;;;;;8.25;7.45;;;;;;;22.59;70.12;100636.38;5019763;28;20211;-68
2023/08/19 05:08:11;;;;;;;9.07;7.85;;;;;;;22.60;70.31;100638.06;5026614;28;20288;-62
2023/08/19 05:10:39;;;;;;;8.57;7.38;;;;;;;22.57;70.68;100638.22;5032470;28;20219;-62
2023/08/19 05:13:07;;;;;;;8.45;7.53;;;;;;;22.50;70.94;100642.09;5032499;28;20756;-61
2023/08/19 05:15:35;;;;;;;8.60;7.53;;;;;;;22.46;71.23;100644.06;5027421;28;20210;-63
2023/08/19 05:18:04;;;;;;;8.30;7.30;;;;;;;22.45;71.41;100650.22;5024376;28;20259;-61
2023/08/19 05:20:32;;;;;;;8.85;7.30;;;;;;;22.40;71.32;100645.22;5018234;28;20206;-63
2023/08/19 05:23:00;;;;;;;9.10;7.82;;;;;;;22.31;71.88;100648.28;5032375;28;20210;-64
2023/08/19 05:25:30;;;;;;;8.40;6.93;;;;;;;22.36;72.01;100645.44;5031569;28;20218;-63
2023/08/19 05:27:58;;;;;;;9.75;6.97;;;;;;;22.34;71.88;100642.03;5032360;28;20617;-62
2023/08/19 05:30:26;;;;;;;8.07;6.70;;;;;;;22.37;71.87;100645.34;5032163;28;20246;-62
2023/08/19 05:32:54;;;;;;;8.23;6.95;;;;;;;22.54;71.78;100641.88;5032075;28;20199;-65
2023/08/19 05:35:23;;;;;;;7.47;6.85;;;;;;;22.96;70.66;100644.97;5021919;28;20211;-63
2023/08/19 05:37:51;;;;;;;7.68;6.32;;;;;;;23.63;68.72;100642.13;5029562;28;20213;-64
2023/08/19 05:40:19;;;;;;;7.25;6.55;;;;;;;24.08;66.15;100637.84;5032183;28;20248;-63
2023/08/19 05:42:49;;;;;;;7.38;6.32;;;;;;;24.40;64.09;100637.72;5030852;28;20218;-63
2023/08/19 05:45:17;;;;;;;6.70;6.07;;;;;;;25.01;62.49;100641.91;5020184;28;20649;-66
2023/08/19 05:47:45;;;;;;;6.97;6.28;;;;;;;25.20;61.21;100648.69;5031818;28;20206;-63
2023/08/19 05:50:13;;;;;;;9.20;6.22;;;;;;;25.41;61.02;100647.34;5032274;28;20685;-64
2023/08/19 05:52:41;;;;;;;7.10;5.55;;;;;;;25.71;59.67;100646.31;5031930;28;20207;-64
2023/08/19 05:55:09;;;;;;;6.25;5.75;;;;;;;26.25;58.42;100647.13;5031007;28;20217;-63
2023/08/19 05:57:37;;;;;;;6.25;5.72;;;;;;;26.91;56.57;100647.88;5031435;28;20202;-64
2023/08/19 06:00:08;;;;;;;6.40;5.63;;;;;;;27.62;53.78;100640.22;5031834;28;20209;-63
2023/08/19 06:02:36;;;;;;;6.60;5.22;;;;;;;28.34;51.02;100640.13;5028575;28;20206;-62
2023/08/19 06:05:05;;;;;;;12.88;5.10;;;;;;;29.18;48.74;100638.06;5030340;28;20203;-62
2023/08/19 06:07:33;;;;;;;5.38;4.88;;;;;;;29.89;46.59;100630.50;5031056;28;20268;-66
2023/08/19 06:10:03;;;;;;;7.43;5.28;;;;;;;30.54;44.20;100634.75;5030123;28;20744;-64
2023/08/19 06:12:31;;;;;;;9.38;4.93;;;;;;;31.09;43.38;100635.28;5031802;28;20214;-64
2023/08/19 06:14:59;;;;;;;9.27;5.13;;;;;;;31.75;41.34;100635.53;5031337;28;20281;-64
2023/08/19 06:17:28;;;;;;;7.90;4.78;;;;;;;32.21;39.97;100631.31;5018156;28;20212;-67
2023/08/19 06:19:56;;;;;;;5.70;4.68;;;;;;;32.59;39.64;100629.56;5031342;28;20194;-64
2023/08/19 06:22:24;;;;;;;5.03;4.50;;;;;;;33.02;38.19;100630.78;5031457;28;20700;-64
2023/08/19 06:24:52;;;;;;;5.95;5.25;;;;;;;33.41;36.47;100631.41;5019763;28;20214;-63
2023/08/19 06:27:20;;;;;;;7.22;5.10;;;;;;;33.45;36.86;100626.59;5029412;28;20215;-62
2023/08/19 06:29:47;;;;;;;5.53;4.43;;;;;;;33.71;36.60;100626.69;5031160;28;20290;-65
2023/08/19 06:32:16;;;;;;;9.07;5.00;;;;;;;33.81;36.11;100626.63;5031139;28;20285;-63
2023/08/19 06:34:47;;;;;;;8.20;4.70;;;;;;;33.93;35.63;100635.25;5031365;28;20210;-63
2023/08/19 06:37:20;;;;;;;5.95;4.32;;;;;;;34.00;35.41;100623.81;5029332;28;20257;-64
2023/08/19 06:39:50;;;;;;;6.18;4.40;;;;;;;34.37;34.75;100617.38;5026770;28;20262;-63
2023/08/19 06:42:20;;;;;;;6.57;4.32;;;;;;;34.73;34.22;100619.94;5030751;28;20574;-64
2023/08/19 06:44:51;;;;;;;4.95;4.55;;;;;;;35.09;33.60;100618.75;5028030;28;20209;-66
2023/08/19 06:47:22;;;;;;;6.20;5.03;;;;;;;35.29;33.13;100615.78;5020537;28;20212;-64
2023/08/19 06:49:53;;;;;;;5.13;4.72;;;;;;;35.61;32.96;100620.38;5014385;28;20306;-63
2023/08/19 06:52:23;;;;;;;9.52;5.22;;;;;;;36.07;31.92;100614.53;5031344;28;20222;-68
2023/08/19 06:54:51;;;;;;;5.10;4.60;;;;;;;36.23;31.45;100623.41;5028266;28;20206;-65
2023/08/19 06:57:28;;;;;;;8.75;5.20;;;;;;;36.49;31.43;100617.84;5020270;28;20710;-65
2023/08/19 07:00:03;;;;;;;6.38;5.10;;;;;;;36.48;30.30;100616.13;5028239;28;20289;-63
2023/08/19 07:02:35;;;;;;;7.05;5.13;;;;;;;36.40;30.88;100618.00;5020618;28;20231;-64
2023/08/19 07:05:12;;;;;;;7.10;4.90;;;;;;;36.49;30.85;100619.66;5030760;28;20230;-63
2023/08/19 07:07:46;;;;;;;6.82;5.53;;;;;;;36.75;30.69;100611.38;5030894;28;20745;-62
2023/08/19 07:10:17;;;;;;;5.07;4.63;;;;;;;37.33;29.62;100612.72;5030909;28;20585;-64
2023/08/19 07:12:47;;;;;;;6.85;5.40;;;;;;;37.46;29.73;100613.03;5020831;28;20206;-67
2023/08/19 07:15:15;;;;;;;5.78;4.43;;;;;;;37.57;29.25;100616.31;5029690;28;20222;-68
2023/08/19 07:17:45;;;;;;;5.82;5.20;;;;;;;37.98;28.63;100614.13;5030788;28;20211;-64
2023/08/19 07:20:17;;;;;;;5.00;4.60;;;;;;;38.13;28.32;100611.47;5030561;28;20245;-65
2023/08/19 07:22:47;;;;;;;7.80;5.03;;;;;;;38.25;27.93;100626.13;5030690;28;20202;-64
2023/08/19 07:25:16;;;;;;;5.90;5.38;;;;;;;37.81;28.89;100617.94;5030964;28;20564;-65
2023/08/19 07:27:45;;;;;;;6.45;4.50;;;;;;;38.00;29.18;100613.94;5030911;28;20569;-65
2023/08/19 07:30:14;;;;;;;11.98;4.90;;;;;;;38.02;29.02;100609.22;5030356;28;20245;-64
2023/08/19 07:32:43;;;;;;;7.03;4.82;;;;;;;37.27;30.00;100616.16;5030853;28;20626;-63
2023/08/19 07:35:11;;;;;;;6.97;5.13;;;;;;;36.20;31.65;100618.38;5030717;28;20238;-63
2023/08/19 07:37:40;;;;;;;11.05;8.88;;;;;;;36.01;32.55;100619.56;5030417;28;20325;-62
2023/08/19 07:40:09;;;;;;;8.18;5.53;;;;;;;36.38;32.30;100615.50;5030503;28;20230;-65
2023/08/19 07:42:37;;;;;;;6.45;4.90;;;;;;;37.77;30.47;100614.78;5017042;28;20251;-64
2023/08/19 07:45:07;;;;;;;7.25;5.47;;;;;;;38.73;28.35;100610.47;5022962;28;20658;-66
2023/08/19 07:47:35;;;;;;;9.70;5.15;;;;;;;38.85;27.27;100627.88;5030787;28;20214;-68
2023/08/19 07:50:04;;;;;;;5.63;5.13;;;;;;;39.00;27.29;100624.31;5033462;28;20677;-65
2023/08/19 07:52:32;;;;;;;8.50;4.90;;;;;;;39.17;26.92;100635.69;5022882;28;20214;-64
2023/08/19 07:55:02;;;;;;;5.53;5.00;;;;;;;39.58;27.14;100628.66;5031892;28;20207;-64
2023/08/19 07:57:30;;;;;;;6.88;5.22;;;;;;;39.96;26.29;100624.88;5034451;28;20341;-67
2023/08/19 07:59:58;;;;;;;9.23;4.75;;;;;;;40.39;26.35;100630.16;5034063;28;20253;-64
2023/08/19 08:02:26;;;;;;;4.82;4.30;;;;;;;40.91;25.24;100620.66;5034235;28;20197;-64
2023/08/19 08:04:55;;;;;;;7.18;5.07;;;;;;;40.60;25.33;100624.72;5033802;28;20246;-66
2023/08/19 08:07:24;;;;;;;5.03;4.53;;;;;;;40.64;25.15;100622.44;5033705;28;20194;-64
2023/08/19 08:09:52;;;;;;;5.68;4.70;;;;;;;40.74;25.39;100623.75;5033838;28;20293;-64
2023/08/19 08:12:21;;;;;;;11.35;5.18;;;;;;;41.34;24.53;100620.41;5027222;28;20238;-68
2023/08/19 08:14:49;;;;;;;5.63;4.55;;;;;;;42.51;23.07;100621.66;5027121;28;20284;-65
2023/08/19 08:17:17;;;;;;;6.97;4.60;;;;;;;43.74;21.72;100624.16;5032822;28;20285;-65
2023/08/19 08:19:45;;;;;;;5.55;4.70;;;;;;;44.23;21.15;100622.47;5033542;28;20224;-65
2023/08/19 08:22:13;;;;;;;4.88;4.40;;;;;;;43.89;21.39;100613.81;5033632;28;20197;-65
2023/08/19 08:24:42;;;;;;;9.45;5.40;;;;;;;43.09;21.73;100610.84;5033592;28;20206;-68
2023/08/19 08:27:10;;;;;;;9.57;8.00;;;;;;;42.42;22.70;100615.63;5033286;28;20228;-62
2023/08/19 08:29:39;;;;;;;7.90;5.18;;;;;;;42.54;23.23;100616.66;5033899;28;20324;-66
2023/08/19 08:32:09;;;;;;;6.78;5.35;;;;;;;43.16;22.69;100611.63;5033711;28;20256;-66
2023/08/19 08:34:37;;;;;;;6.55;4.88;;;;;;;43.46;22.06;100617.25;5033326;28;20206;-64
2023/08/19 08:37:05;;;;;;;6.07;5.13;;;;;;;42.09;23.11;100611.13;5033614;28;20408;-65
2023/08/19 08:39:33;;;;;;;5.60;5.03;;;;;;;40.49;25.27;100617.16;5033150;28;20229;-61
2023/08/19 08:42:02;;;;;;;6.00;5.38;;;;;;;39.20;27.52;100617.25;5033464;28;20661;-62
2023/08/19 08:44:33;;;;;;;7.25;5.50;;;;;;;38.29;28.52;100622.03;5031143;28;20206;-61
2023/08/19 08:47:04;;;;;;;6.05;5.45;;;;;;;38.43;28.92;100618.56;5022005;28;20664;-66
2023/08/19 08:49:32;;;;;;;6.82;5.28;;;;;;;38.98;27.82;100623.66;5032956;28;20296;-63
2023/08/19 08:52:01;;;;;;;5.72;5.13;;;;;;;39.02;27.75;100617.69;5033123;28;20296;-64
2023/08/19 08:54:31;;;;;;;9.75;4.82;;;;;;;38.65;28.47;100615.94;5033463;28;20249;-66
2023/08/19 08:57:01;;;;;;;5.93;5.40;;;;;;;37.85;29.56;100620.09;5033112;28;20214;-66
2023/08/19 08:59:29;;;;;;;8.68;5.85;;;;;;;36.98;30.87;100617.66;5032992;28;20219;-65
2023/08/19 09:01:59;;;;;;;6.30;5.70;;;;;;;36.25;32.04;100612.50;5032116;28;20205;-67
2023/08/19 09:04:29;;;;;;;7.32;5.40;;;;;;;36.02;32.86;100620.41;5021427;28;20242;-64
2023/08/19 09:07:03;;;;;;;7.43;5.75;;;;;;;36.36;32.06;100614.81;5031558;28;20210;-61
2023/08/19 09:09:35;;;;;;;7.05;5.82;;;;;;;37.19;30.82;100613.50;5032708;28;20206;-63
2023/08/19 09:12:08;;;;;;;12.82;6.38;;;;;;;38.46;29.39;100609.28;5032940;28;20239;-67
2023/08/19 09:14:41;;;;;;;8.27;6.38;;;;;;;39.54;27.35;100603.09;5032166;28;20233;-69
2023/08/19 09:17:12;;;;;;;8.15;6.28;;;;;;;40.14;26.17;100595.56;5033122;28;20289;-66
2023/08/19 09:19:42;;;;;;;7.20;6.30;;;;;;;40.78;25.71;100594.44;5032866;28;20203;-65
2023/08/19 09:22:20;;;;;;;10.80;6.20;;;;;;;40.95;25.23;100597.63;5032909;28;20665;-64
2023/08/19 09:24:49;;;;;;;8.15;6.35;;;;;;;40.72;25.74;100604.19;5033069;28;20715;-62
2023/08/19 09:27:27;;;;;;;7.00;5.97;;;;;;;40.83;25.81;100591.13;5032343;28;20230;-64
2023/08/19 09:29:58;;;;;;;5.97;5.40;;;;;;;40.91;25.51;100596.34;5019869;28;20238;-61
2023/08/19 09:32:31;;;;;;;6.35;5.75;;;;;;;40.30;26.90;100603.31;5018328;28;20252;-67
2023/08/19 09:35:06;;;;;;;7.22;5.60;;;;;;;39.69;27.89;100599.53;5019779;28;20255;-61
2023/08/19 09:37:35;;;;;;;7.10;5.18;;;;;;;39.13;28.40;100603.72;5032061;28;20210;-65
2023/08/19 09:40:07;;;;;;;9.65;6.30;;;;;;;38.97;28.53;100609.34;5032387;28;20721;-61
2023/08/19 09:42:36;;;;;;;9.88;5.82;;;;;;;38.71;28.96;100600.91;5032401;28;20521;-65
2023/08/19 09:45:05;;;;;;;7.18;6.50;;;;;;;38.21;29.61;100600.59;5030180;28;20206;-65
2023/08/19 09:47:47;;;;;;;6.22;5.47;;;;;;;37.65;30.59;100608.16;5032074;28;20214;-62
2023/08/19 09:50:17;;;;;;;6.75;5.40;;;;;;;36.93;31.78;100608.41;5031290;28;20230;-62
2023/08/19 09:52:54;;;;;;;8.48;5.90;;;;;;;36.17;32.60;100617.88;5025359;28;20215;-64
2023/08/19 09:55:26;;;;;;;9.77;6.38;;;;;;;35.50;34.18;100610.00;5025551;28;20230;-62
2023/08/19 09:57:55;;;;;;;8.30;6.30;;;;;;;34.96;34.92;100618.34;5025713;28;20661;-61
2023/08/19 10:00:23;;;;;;;7.38;6.18;;;;;;;34.68;35.66;100614.19;5024849;28;20298;-62
2023/08/19 10:02:51;;;;;;;7.28;6.53;;;;;;;34.47;36.17;100623.44;5027279;28;20308;-63
2023/08/19 10:05:21;;;;;;;7.75;6.13;;;;;;;34.19;36.34;100608.56;5026927;28;20210;-63
2023/08/19 10:07:54;;;;;;;7.18;6.47;;;;;;;34.23;36.48;100604.56;5012078;28;20203;-62
2023/08/19 10:10:24;;;;;;;12.45;6.65;;;;;;;34.43;36.21;100610.53;5029874;28;20213;-61
2023/08/19 10:12:55;;;;;;;8.10;5.82;;;;;;;34.80;35.12;100607.59;5031263;28;20582;-66
2023/08/19 10:15:27;;;;;;;8.80;5.88;;;;;;;34.83;35.01;100613.44;5031429;28;20208;-68
2023/08/19 10:17:59;;;;;;;6.88;5.70;;;;;;;34.94;35.18;100612.28;5021222;28;20207;-65
2023/08/19 10:20:32;;;;;;;8.23;6.07;;;;;;;35.54;35.04;100606.81;5029020;28;20654;-67
2023/08/19 10:23:04;;;;;;;10.38;5.72;;;;;;;36.45;33.45;100613.75;5031703;28;20211;-66
2023/08/19 10:25:32;;;;;;;6.70;5.13;;;;;;;37.21;31.03;100606.09;5031510;28;20571;-66
2023/08/19 10:28:12;;;;;;;6.45;5.60;;;;;;;37.92;30.20;100602.22;5031253;28;20213;-67
2023/08/19 10:30:41;;;;;;;7.40;5.53;;;;;;;38.70;29.12;100607.31;5031212;28;20242;-68
2023/08/19 10:33:29;;;;;;;6.93;5.40;;;;;;;39.65;28.43;100600.91;5029655;28;20225;-64
2023/08/19 10:35:59;;;;;;;6.75;5.40;;;;;;;40.48;26.84;100607.38;5031360;28;20736;-64
2023/08/19 10:38:41;;;;;;;7.65;5.18;;;;;;;40.56;26.08;100591.03;5031346;28;20199;-64
2023/08/19 10:41:18;;;;;;;6.35;5.60;;;;;;;40.67;26.08;100597.72;5030896;28;20199;-63
2023/08/19 10:44:00;;;;;;;5.80;5.07;;;;;;;40.37;26.54;100599.84;5031364;28;20221;-63
2023/08/19 10:46:32;;;;;;;5.88;5.38;;;;;;;40.00;26.98;100615.38;5031002;28;20236;-65
2023/08/19 10:49:00;;;;;;;6.13;5.40;;;;;;;39.70;28.28;100607.44;5031422;28;20572;-67
2023/08/19 10:51:53;;;;;;;7.18;6.07;;;;;;;39.31;29.17;100608.69;5028546;28;20701;-65
2023/08/19 10:54:26;;;;;;;9.25;5.78;;;;;;;39.53;28.21;100603.31;5023574;28;20210;-65
2023/08/19 10:57:07;;;;;;;9.77;6.15;;;;;;;39.82;27.44;100603.19;5017177;28;20199;-64
2023/08/19 10:59:36;;;;;;;8.20;5.35;;;;;;;39.94;27.73;100605.34;5017788;28;20214;-65
2023/08/19 11:02:05;;;;;;;8.10;5.63;;;;;;;39.65;27.92;100595.53;5029311;28;20204;-64
2023/08/19 11:04:34;;;;;;;8.07;5.95;;;;;;;39.26;29.18;100608.44;5031198;28;20658;-63
2023/08/19 11:07:05;;;;;;;5.70;5.18;;;;;;;38.99;28.96;100609.13;5026123;28;20234;-63
2023/08/19 11:09:32;;;;;;;9.73;6.07;;;;;;;38.84;29.22;100603.78;5022497;28;20203;-64
2023/08/19 11:12:01;;;;;;;9.65;5.50;;;;;;;39.09;29.08;100602.41;5030954;28;20582;-64
2023/08/19 11:14:29;;;;;;;6.68;5.28;;;;;;;39.12;28.32;100593.13;5021439;28;20582;-64
2023/08/19 11:16:58;;;;;;;6.57;5.97;;;;;;;38.58;29.40;100583.53;5027223;28;20209;-63
2023/08/19 11:19:26;;;;;;;6.55;5.93;;;;;;;38.12;30.36;100590.97;5030766;28;20627;-62
2023/08/19 11:21:55;;;;;;;8.57;5.72;;;;;;;37.77;30.50;100595.13;5030767;28;20657;-63
2023/08/19 11:24:31;;;;;;;9.13;6.25;;;;;;;37.58;30.83;100591.09;5020352;28;20656;-67
2023/08/19 11:27:00;;;;;;;6.97;5.85;;;;;;;37.38;31.31;100596.09;5034000;28;20214;-64
2023/08/19 11:29:29;;;;;;;6.75;5.78;;;;;;;37.03;31.85;100592.94;5034206;28;20229;-63
2023/08/19 11:31:57;;;;;;;7.50;5.53;;;;;;;36.59;32.41;100585.41;5033224;28;20226;-64
2023/08/19 11:34:28;;;;;;;5.93;5.30;;;;;;;36.25;32.41;100583.81;5020062;28;20203;-64